メインページ
METAR-TAF:

METAR-TAF

空港 :

Ingenika Point, ブリティッシュコロンビア州, カナダ

緯度: 56-48N, 経度: 124-54W, 海抜: 680m

METAR: 見つかりません

時間: 02:20 (09:20 UTC)

予報

当レポートは3時間20分前の06:00(UTC)に作成
予報は26日の 06時(UTC)から 27日の 06時(UTC)まで有効
南西の風 5kt
視程: 10km
晴天
26日の 07時(UTC)から 26日の 09時(UTC)まで徐々に
南西の風 10kt
26日の 1500時(UTC)から
南/南西の風 5kt
視程: 10km
晴天
26日の 1800時(UTC)から
の風 5kt
視程: 10km
高度15000ftの雲は散在している
26日の 2300時(UTC)から
南/南東の風 9kt
視程: 10km
高度15000ftの千切れ雲あり
27日の 03時(UTC)から 27日の 05時(UTC)まで徐々に
南東の風 9kt
高度15000ftの雲は散在している

TAF: CWWU 260600Z 2606/2706 22005KT P6SM SKC BECMG 2607/2609 22010KT FM261500 20005KT P6SM SKC FM261800 18005KT P6SM SCT150 FM262300 15009KT P6SM BKN150 BECMG 2703/2705 13009KT SCT150 RMK FCST BASED ON AUTO OBS. RMK NXT FCST BY 261200Z

4,000以上の空港の気象観測と天気予報(METAR報とTAF報)

利用可能な観測所は地図上に黄色い丸と赤い丸で示す。

丸の上にカーソルを重ねると観測所名を参照できる。

次にクリックすると気象観測と天気予報を参照できる。

マップの切り替え:黒色「×」印の緑ボタンをクリックして拡大、「-」印の緑ボタンをクリックして縮小、緑色の三角印をクリックして隣りの地図に切り替え


METAR-TAF: